createdAt,value
2022-11-10T00:02:14.682Z,8.20
2022-11-10T00:04:41.296Z,8.20
2022-11-10T00:07:07.976Z,8.20
2022-11-10T00:09:34.834Z,8.20
2022-11-10T00:12:01.427Z,8.20
2022-11-10T00:14:46.685Z,8.20
2022-11-10T00:17:13.704Z,8.30
2022-11-10T00:19:40.609Z,8.30
2022-11-10T00:22:07.422Z,8.30
2022-11-10T00:24:34.030Z,8.20
2022-11-10T00:27:00.750Z,8.20
2022-11-10T00:29:27.367Z,8.20
2022-11-10T00:31:53.966Z,8.30
2022-11-10T00:34:20.817Z,8.30
2022-11-10T00:36:47.493Z,8.30
2022-11-10T00:39:14.088Z,8.40
2022-11-10T00:41:40.794Z,8.30
2022-11-10T00:44:07.620Z,8.30
2022-11-10T00:46:34.354Z,8.30
2022-11-10T00:49:01.005Z,8.30
2022-11-10T00:51:29.140Z,8.30
2022-11-10T00:53:56.849Z,8.40
2022-11-10T00:56:23.973Z,8.40
2022-11-10T00:58:50.639Z,8.40
2022-11-10T01:01:18.467Z,8.50
2022-11-10T01:03:45.263Z,8.50
2022-11-10T01:06:13.294Z,8.50
2022-11-10T01:08:40.324Z,8.50
2022-11-10T01:11:12.786Z,8.50
2022-11-10T01:13:39.772Z,8.50
2022-11-10T01:16:07.783Z,8.50
2022-11-10T01:18:34.921Z,8.60
2022-11-10T01:21:01.942Z,8.50
2022-11-10T01:23:29.045Z,8.50
2022-11-10T01:25:59.620Z,8.50
2022-11-10T01:28:26.637Z,8.50
2022-11-10T01:30:57.047Z,8.50
2022-11-10T01:33:24.057Z,8.50
2022-11-10T01:35:50.933Z,8.50
2022-11-10T01:38:17.544Z,8.50
2022-11-10T01:40:44.769Z,8.50
2022-11-10T01:43:12.195Z,8.50
2022-11-10T01:45:52.812Z,8.60
2022-11-10T01:48:26.873Z,8.60
2022-11-10T01:50:54.095Z,8.60
2022-11-10T01:53:23.956Z,8.60
2022-11-10T01:55:51.681Z,8.60
2022-11-10T01:58:20.817Z,8.60
2022-11-10T02:00:47.555Z,8.60
2022-11-10T02:03:23.766Z,8.60
2022-11-10T02:05:50.784Z,8.60
2022-11-10T02:08:18.020Z,8.60
2022-11-10T02:10:44.611Z,8.60
2022-11-10T02:13:12.036Z,8.60
2022-11-10T02:15:39.275Z,8.60
2022-11-10T02:18:05.939Z,8.60
2022-11-10T02:20:32.626Z,8.60
2022-11-10T02:22:59.286Z,8.60
2022-11-10T02:25:27.796Z,8.60
2022-11-10T02:27:54.412Z,8.60
2022-11-10T02:30:25.164Z,8.60
2022-11-10T02:32:54.035Z,8.50
2022-11-10T02:35:20.656Z,8.50
2022-11-10T02:37:47.285Z,8.50
2022-11-10T02:40:13.863Z,8.50
2022-11-10T02:42:40.462Z,8.50
2022-11-10T02:45:08.686Z,8.50
2022-11-10T02:47:35.563Z,8.50
2022-11-10T02:50:02.154Z,8.50
2022-11-10T02:52:28.779Z,8.50
2022-11-10T02:54:55.346Z,8.60
2022-11-10T02:57:21.971Z,8.60
2022-11-10T02:59:48.698Z,8.60
2022-11-10T03:02:15.518Z,8.60
2022-11-10T03:04:42.255Z,8.60
2022-11-10T03:07:08.918Z,8.60
2022-11-10T03:09:35.735Z,8.60
2022-11-10T03:12:02.324Z,8.60
2022-11-10T03:14:28.942Z,8.60
2022-11-10T03:16:55.570Z,8.60
2022-11-10T03:19:22.173Z,8.60
2022-11-10T03:21:48.783Z,8.60
2022-11-10T03:24:15.395Z,8.70
2022-11-10T03:26:42.007Z,8.70
2022-11-10T03:29:08.604Z,8.70
2022-11-10T03:31:35.256Z,8.70
2022-11-10T03:34:01.838Z,8.80
2022-11-10T03:36:28.404Z,8.80
2022-11-10T03:38:55.031Z,8.80
2022-11-10T03:41:21.613Z,8.80
2022-11-10T03:43:49.202Z,8.80
2022-11-10T03:46:16.486Z,8.80
2022-11-10T03:48:44.532Z,8.80
2022-11-10T03:51:12.885Z,8.80
2022-11-10T03:53:39.501Z,8.80
2022-11-10T03:56:06.664Z,8.80
2022-11-10T03:58:33.318Z,8.80
2022-11-10T04:01:00.551Z,8.80
2022-11-10T04:03:27.126Z,8.80
2022-11-10T04:06:12.530Z,8.80
2022-11-10T04:08:57.534Z,8.80
2022-11-10T04:11:42.587Z,8.80
2022-11-10T04:14:27.719Z,8.80
2022-11-10T04:16:54.630Z,8.80
2022-11-10T04:19:21.394Z,8.80
2022-11-10T04:21:48.002Z,8.80
2022-11-10T04:24:14.823Z,8.80
2022-11-10T04:26:42.893Z,8.80
2022-11-10T04:29:10.946Z,8.90
2022-11-10T04:31:39.044Z,8.80
2022-11-10T04:34:10.043Z,8.80
2022-11-10T04:36:37.644Z,8.80
2022-11-10T04:39:04.899Z,8.80
2022-11-10T04:41:31.941Z,8.80
2022-11-10T04:43:59.336Z,8.80
2022-11-10T04:46:39.399Z,8.80
2022-11-10T04:49:06.706Z,8.80
2022-11-10T04:51:35.654Z,8.80
2022-11-10T04:54:02.963Z,8.90
2022-11-10T04:56:29.652Z,8.90
2022-11-10T04:58:56.331Z,8.90
2022-11-10T05:01:24.559Z,8.90
2022-11-10T05:03:51.977Z,8.80
2022-11-10T05:06:18.706Z,8.90
2022-11-10T05:08:45.667Z,8.90
2022-11-10T05:11:12.326Z,8.90
2022-11-10T05:13:39.056Z,8.90
2022-11-10T05:16:06.296Z,8.90
2022-11-10T05:18:33.246Z,8.90
2022-11-10T05:20:59.992Z,9.00
2022-11-10T05:23:39.045Z,9.00
2022-11-10T05:26:05.741Z,9.00
2022-11-10T05:28:32.394Z,8.90
2022-11-10T05:30:59.009Z,9.00
2022-11-10T05:33:25.896Z,9.00
2022-11-10T05:35:52.617Z,8.90
2022-11-10T05:38:19.225Z,9.00
2022-11-10T05:40:45.882Z,9.00
2022-11-10T05:43:12.480Z,9.00
2022-11-10T05:45:39.256Z,9.00
2022-11-10T05:48:05.970Z,9.00
2022-11-10T05:50:32.796Z,9.00
2022-11-10T05:52:59.451Z,9.00
2022-11-10T05:55:28.496Z,9.00
2022-11-10T05:57:55.627Z,9.00
2022-11-10T06:00:23.571Z,9.00
2022-11-10T06:02:56.940Z,9.00
2022-11-10T06:05:26.913Z,9.00
2022-11-10T06:07:57.836Z,9.10
2022-11-10T06:10:24.964Z,9.00
2022-11-10T06:12:51.679Z,9.00
2022-11-10T06:15:18.352Z,9.00
2022-11-10T06:17:45.073Z,9.00
2022-11-10T06:20:12.968Z,9.00
2022-11-10T06:22:39.697Z,9.00
2022-11-10T06:25:06.627Z,9.00
2022-11-10T06:27:33.551Z,9.00
2022-11-10T06:30:00.525Z,9.00
2022-11-10T06:32:27.173Z,9.10
2022-11-10T06:34:59.279Z,9.10
2022-11-10T06:37:27.040Z,9.10
2022-11-10T06:39:53.660Z,9.10
2022-11-10T06:42:20.292Z,9.20
2022-11-10T06:44:46.884Z,9.20
2022-11-10T06:47:13.530Z,9.20
2022-11-10T06:49:40.120Z,9.20
2022-11-10T06:52:06.882Z,9.10
2022-11-10T06:54:33.544Z,9.20
2022-11-10T06:57:00.136Z,9.20
2022-11-10T06:59:26.711Z,9.20
2022-11-10T07:01:53.277Z,9.10
2022-11-10T07:04:21.024Z,9.20
2022-11-10T07:06:47.972Z,9.20
2022-11-10T07:09:14.970Z,9.30
2022-11-10T07:11:41.737Z,9.30
2022-11-10T07:14:08.521Z,9.40
2022-11-10T07:16:35.332Z,9.40
2022-11-10T07:19:01.972Z,9.40
2022-11-10T07:21:28.876Z,9.50
2022-11-10T07:23:55.499Z,9.40
2022-11-10T07:26:22.127Z,9.50
2022-11-10T07:28:48.754Z,9.40
2022-11-10T07:31:15.452Z,9.40
2022-11-10T07:33:44.063Z,9.40
2022-11-10T07:36:10.819Z,9.40
2022-11-10T07:38:37.465Z,9.40
2022-11-10T07:41:04.094Z,9.40
2022-11-10T07:43:31.483Z,9.50
2022-11-10T07:45:58.182Z,9.60
2022-11-10T07:48:24.895Z,9.60
2022-11-10T07:50:51.523Z,9.60
2022-11-10T07:53:20.132Z,9.60
2022-11-10T07:55:47.048Z,9.60
2022-11-10T07:58:14.907Z,9.70
2022-11-10T08:00:42.286Z,9.70
2022-11-10T08:03:11.973Z,9.70
2022-11-10T08:05:38.963Z,9.80
2022-11-10T08:08:05.946Z,9.80
2022-11-10T08:10:33.382Z,9.80
2022-11-10T08:13:01.573Z,9.90
2022-11-10T08:15:28.784Z,9.90
2022-11-10T08:18:02.239Z,9.90
2022-11-10T08:20:29.296Z,10.00
2022-11-10T08:23:03.388Z,10.00
2022-11-10T08:25:34.787Z,9.90
2022-11-10T08:28:12.710Z,10.00
2022-11-10T08:30:40.768Z,10.00
2022-11-10T08:33:08.182Z,10.00
2022-11-10T08:35:35.871Z,10.00
2022-11-10T08:38:09.538Z,10.00
2022-11-10T08:40:36.942Z,10.00
2022-11-10T08:43:04.241Z,10.00
2022-11-10T08:45:30.887Z,10.00
2022-11-10T08:48:01.273Z,10.10
2022-11-10T08:50:28.516Z,10.10
2022-11-10T08:52:55.503Z,10.10
2022-11-10T08:55:22.247Z,10.20
2022-11-10T08:57:48.848Z,10.20
2022-11-10T09:00:16.644Z,10.20
2022-11-10T09:02:43.362Z,10.20
2022-11-10T09:05:10.305Z,10.20
2022-11-10T09:07:47.188Z,10.30
2022-11-10T09:10:14.368Z,10.20
2022-11-10T09:12:41.621Z,10.20
2022-11-10T09:15:09.026Z,10.20
2022-11-10T09:17:36.482Z,10.20
2022-11-10T09:20:03.945Z,10.20
2022-11-10T09:22:30.598Z,10.20
2022-11-10T09:24:57.217Z,10.30
2022-11-10T09:27:23.847Z,10.30
2022-11-10T09:29:50.446Z,10.40
2022-11-10T09:32:17.069Z,10.40
2022-11-10T09:34:46.593Z,10.50
2022-11-10T09:37:15.514Z,10.70
2022-11-10T09:39:42.119Z,10.70
2022-11-10T09:42:29.929Z,10.70
2022-11-10T09:45:00.360Z,10.70
2022-11-10T09:47:56.214Z,10.80
2022-11-10T09:50:43.665Z,10.80
2022-11-10T09:53:13.633Z,11.00
2022-11-10T09:55:48.560Z,10.90
2022-11-10T09:58:15.508Z,11.00
2022-11-10T10:00:46.192Z,11.00
2022-11-10T10:03:17.165Z,11.10
2022-11-10T10:05:57.020Z,11.30
2022-11-10T10:08:26.848Z,11.40
2022-11-10T10:11:13.827Z,11.40
2022-11-10T10:13:43.443Z,11.50
2022-11-10T10:16:13.147Z,11.60
2022-11-10T10:18:39.694Z,11.60
2022-11-10T10:21:06.290Z,11.70
2022-11-10T10:26:28.017Z,11.90
2022-11-10T10:28:55.489Z,12.00
2022-11-10T10:31:32.824Z,12.00
2022-11-10T10:33:59.926Z,12.10
2022-11-10T10:36:29.359Z,12.30
2022-11-10T10:38:57.570Z,12.30
2022-11-10T10:41:25.463Z,12.30
2022-11-10T10:43:56.288Z,12.40
2022-11-10T10:46:35.775Z,12.40
2022-11-10T10:49:30.261Z,12.40
2022-11-10T10:52:06.426Z,12.40
2022-11-10T10:54:34.581Z,12.40
2022-11-10T10:57:06.482Z,12.50
2022-11-10T10:59:33.896Z,12.50
2022-11-10T11:02:00.757Z,12.40
2022-11-10T11:04:32.593Z,12.30
2022-11-10T11:07:04.169Z,12.30
2022-11-10T11:09:40.209Z,12.30
2022-11-10T11:12:08.217Z,12.30
2022-11-10T11:14:35.017Z,12.40
2022-11-10T11:17:03.660Z,12.60
2022-11-10T11:19:35.119Z,12.80
2022-11-10T11:22:20.607Z,13.10
2022-11-10T11:24:53.292Z,13.20
2022-11-10T11:27:40.223Z,13.40
2022-11-10T11:30:10.166Z,13.30
2022-11-10T11:33:02.836Z,13.30
2022-11-10T11:35:44.947Z,13.20
2022-11-10T11:38:16.165Z,13.10
2022-11-10T11:41:01.604Z,13.00
2022-11-10T11:43:37.888Z,13.00
2022-11-10T11:46:16.646Z,12.90
2022-11-10T11:48:46.257Z,12.80
2022-11-10T11:51:18.515Z,12.80
2022-11-10T11:54:04.184Z,12.70
2022-11-10T11:56:32.898Z,12.70
2022-11-10T11:59:20.894Z,12.70
2022-11-10T12:01:47.521Z,12.70
2022-11-10T12:04:17.266Z,12.70
2022-11-10T12:06:52.288Z,12.80
2022-11-10T12:09:25.179Z,12.70
2022-11-10T12:12:07.033Z,12.70
2022-11-10T12:14:36.724Z,12.70
2022-11-10T12:17:12.621Z,12.60
2022-11-10T12:19:45.272Z,12.70
2022-11-10T12:22:24.076Z,12.70
2022-11-10T12:25:06.993Z,12.80
2022-11-10T12:27:35.605Z,12.80
2022-11-10T12:30:04.294Z,12.80
2022-11-10T12:32:31.069Z,12.80
2022-11-10T12:35:03.645Z,12.90
2022-11-10T12:37:35.931Z,13.00
2022-11-10T12:40:05.056Z,13.30
2022-11-10T12:42:33.910Z,13.40
2022-11-10T12:45:08.093Z,13.30
2022-11-10T12:47:45.536Z,13.20
2022-11-10T12:50:25.664Z,13.00
2022-11-10T12:52:58.103Z,12.90
2022-11-10T12:55:36.962Z,12.80
2022-11-10T12:58:04.566Z,12.70
2022-11-10T13:00:32.534Z,12.60
2022-11-10T13:02:59.441Z,12.50
2022-11-10T13:05:31.551Z,12.50
2022-11-10T13:08:06.994Z,12.50
2022-11-10T13:10:33.719Z,12.50
2022-11-10T13:13:03.443Z,12.50
2022-11-10T13:15:39.390Z,12.50
2022-11-10T13:18:08.550Z,12.50
2022-11-10T13:20:41.260Z,12.50
2022-11-10T13:23:26.702Z,12.40
2022-11-10T13:25:54.959Z,12.40
2022-11-10T13:28:40.541Z,12.40
2022-11-10T13:31:26.040Z,12.40
2022-11-10T13:34:07.944Z,12.30
2022-11-10T13:36:39.563Z,12.20
2022-11-10T13:39:32.529Z,12.20
2022-11-10T13:41:59.385Z,12.10
2022-11-10T13:44:33.282Z,12.10
2022-11-10T13:47:09.328Z,12.00
2022-11-10T13:49:42.416Z,12.00
2022-11-10T13:52:09.054Z,11.90
2022-11-10T13:54:38.744Z,11.90
2022-11-10T13:57:19.787Z,11.90
2022-11-10T13:59:49.181Z,11.80
2022-11-10T14:02:34.383Z,11.80
2022-11-10T14:05:01.209Z,11.80
2022-11-10T14:07:29.027Z,11.70
2022-11-10T14:09:56.559Z,11.70
2022-11-10T14:12:41.094Z,11.70
2022-11-10T14:15:28.176Z,11.70
2022-11-10T14:17:55.937Z,11.70
2022-11-10T14:20:31.953Z,11.60
2022-11-10T14:22:59.662Z,11.60
2022-11-10T14:25:26.237Z,11.60
2022-11-10T14:27:57.918Z,11.50
2022-11-10T14:30:25.963Z,11.50
2022-11-10T14:33:06.527Z,11.50
2022-11-10T14:35:36.508Z,11.50
2022-11-10T14:38:04.982Z,11.40
2022-11-10T14:40:31.692Z,11.40
2022-11-10T14:42:59.870Z,11.40
2022-11-10T14:45:29.648Z,11.30
2022-11-10T14:47:57.363Z,11.20
2022-11-10T14:50:25.797Z,11.20
2022-11-10T14:53:00.307Z,11.10
2022-11-10T14:55:29.433Z,11.00
2022-11-10T14:57:56.028Z,11.00
2022-11-10T15:00:25.270Z,10.90
2022-11-10T15:02:52.696Z,10.80
2022-11-10T15:05:19.431Z,10.80
2022-11-10T15:07:46.568Z,10.70
2022-11-10T15:10:15.462Z,10.70
2022-11-10T15:12:42.400Z,10.60
2022-11-10T15:15:19.799Z,10.60
2022-11-10T15:17:48.903Z,10.60
2022-11-10T15:20:30.866Z,10.50
2022-11-10T15:22:59.390Z,10.40
2022-11-10T15:25:32.263Z,10.30
2022-11-10T15:28:03.583Z,10.30
2022-11-10T15:30:30.589Z,10.20
2022-11-10T15:33:02.036Z,10.20
2022-11-10T15:35:30.655Z,10.10
2022-11-10T15:37:58.371Z,10.00
2022-11-10T15:40:28.107Z,9.90
2022-11-10T15:43:27.653Z,9.80
2022-11-10T15:46:01.745Z,9.80
2022-11-10T15:48:38.869Z,9.70
2022-11-10T15:51:05.885Z,9.70
2022-11-10T15:53:32.597Z,9.60
2022-11-10T15:55:59.486Z,9.60
2022-11-10T15:58:27.166Z,9.50
2022-11-10T16:00:54.094Z,9.40
2022-11-10T16:03:21.231Z,9.40
2022-11-10T16:05:48.613Z,9.30
2022-11-10T16:08:16.665Z,9.30
2022-11-10T16:10:45.497Z,9.20
2022-11-10T16:13:13.690Z,9.20
2022-11-10T16:15:40.667Z,9.10
2022-11-10T16:18:12.046Z,9.10
2022-11-10T16:20:38.777Z,9.00
2022-11-10T16:23:05.519Z,9.00
2022-11-10T16:25:33.409Z,9.00
2022-11-10T16:28:03.634Z,8.90
2022-11-10T16:30:30.362Z,8.80
2022-11-10T16:32:57.162Z,8.80
2022-11-10T16:35:23.890Z,8.80
2022-11-10T16:37:50.679Z,8.70
2022-11-10T16:40:18.419Z,8.60
2022-11-10T16:42:45.401Z,8.60
2022-11-10T16:45:16.465Z,8.50
2022-11-10T16:47:48.043Z,8.50
2022-11-10T16:50:32.278Z,8.40
2022-11-10T16:53:01.644Z,8.40
2022-11-10T16:55:28.335Z,8.30
2022-11-10T16:57:55.195Z,8.20
2022-11-10T17:00:22.114Z,8.10
2022-11-10T17:03:15.299Z,8.10
2022-11-10T17:05:42.450Z,8.10
2022-11-10T17:08:31.280Z,8.10
2022-11-10T17:10:58.303Z,8.00
2022-11-10T17:13:25.861Z,8.00
2022-11-10T17:15:53.899Z,7.90
2022-11-10T17:18:24.309Z,7.80
2022-11-10T17:20:54.707Z,7.70
2022-11-10T17:23:23.970Z,7.70
2022-11-10T17:25:51.457Z,7.70
2022-11-10T17:28:19.317Z,7.70
2022-11-10T17:30:46.374Z,7.70
2022-11-10T17:33:13.379Z,7.60
2022-11-10T17:35:47.199Z,7.60
2022-11-10T17:38:17.605Z,7.50
2022-11-10T17:40:44.680Z,7.50
2022-11-10T17:43:13.049Z,7.40
2022-11-10T17:45:40.394Z,7.30
2022-11-10T17:48:08.822Z,7.20
2022-11-10T17:50:36.873Z,7.20
2022-11-10T17:53:24.272Z,7.20
2022-11-10T17:55:51.870Z,7.20
2022-11-10T17:58:20.251Z,7.20
2022-11-10T18:00:47.315Z,7.10
2022-11-10T18:03:18.631Z,7.00
2022-11-10T18:05:46.350Z,7.00
2022-11-10T18:08:14.074Z,7.00
2022-11-10T18:10:41.974Z,6.90
2022-11-10T18:13:12.153Z,7.00
2022-11-10T18:15:45.229Z,6.90
2022-11-10T18:18:13.212Z,6.90
2022-11-10T18:20:42.742Z,6.80
2022-11-10T18:23:11.821Z,6.80
2022-11-10T18:25:39.703Z,6.90
2022-11-10T18:28:07.662Z,6.80
2022-11-10T18:30:35.583Z,6.80
2022-11-10T18:33:04.003Z,6.80
2022-11-10T18:35:35.008Z,6.80
2022-11-10T18:38:02.031Z,6.70
2022-11-10T18:40:30.095Z,6.70
2022-11-10T18:43:01.765Z,6.70
2022-11-10T18:45:31.642Z,6.60
2022-11-10T18:48:03.379Z,6.50
2022-11-10T18:50:31.073Z,6.40
2022-11-10T18:52:58.124Z,6.40
2022-11-10T18:55:26.568Z,6.30
2022-11-10T18:57:53.694Z,6.30
2022-11-10T19:00:21.884Z,6.30
2022-11-10T19:02:48.921Z,6.30
2022-11-10T19:05:17.030Z,6.30
2022-11-10T19:07:44.752Z,6.20
2022-11-10T19:10:13.169Z,6.20
2022-11-10T19:12:40.996Z,6.20
2022-11-10T19:15:11.880Z,6.10
2022-11-10T19:17:40.746Z,6.10
2022-11-10T19:20:10.397Z,6.10
2022-11-10T19:22:39.445Z,6.10
2022-11-10T19:25:08.564Z,6.10
2022-11-10T19:27:37.568Z,6.10
2022-11-10T19:30:05.007Z,6.10
2022-11-10T19:32:34.075Z,6.10
2022-11-10T19:35:01.430Z,6.10
2022-11-10T19:37:34.382Z,6.10
2022-11-10T19:40:02.297Z,6.00
2022-11-10T19:42:29.708Z,6.00
2022-11-10T19:44:56.654Z,6.00
2022-11-10T19:47:24.653Z,6.00
2022-11-10T19:49:51.618Z,5.90
2022-11-10T19:52:19.663Z,5.90
2022-11-10T19:54:47.349Z,5.80
2022-11-10T19:57:15.053Z,5.80
2022-11-10T19:59:42.384Z,5.70
2022-11-10T20:02:13.377Z,5.70
2022-11-10T20:05:00.889Z,5.60
2022-11-10T20:07:48.179Z,5.50
2022-11-10T20:10:16.222Z,5.40
2022-11-10T20:12:44.609Z,5.50
2022-11-10T20:15:11.917Z,5.40
2022-11-10T20:17:41.393Z,5.50
2022-11-10T20:20:10.744Z,5.40
2022-11-10T20:22:38.687Z,5.40
2022-11-10T20:25:05.964Z,5.40
2022-11-10T20:27:33.098Z,5.40
2022-11-10T20:30:01.097Z,5.40
2022-11-10T20:32:32.307Z,5.40
2022-11-10T20:35:00.045Z,5.40
2022-11-10T20:37:32.669Z,5.40
2022-11-10T20:40:00.969Z,5.40
2022-11-10T20:42:29.212Z,5.40
2022-11-10T20:44:59.250Z,5.40
2022-11-10T20:47:29.112Z,5.40
2022-11-10T20:49:56.719Z,5.30
2022-11-10T20:52:24.030Z,5.30
2022-11-10T20:54:58.522Z,5.20
2022-11-10T20:57:25.976Z,5.20
2022-11-10T20:59:52.993Z,5.20
2022-11-10T21:02:20.277Z,5.20
2022-11-10T21:04:47.340Z,5.20
2022-11-10T21:07:14.840Z,5.20
2022-11-10T21:09:41.922Z,5.20
2022-11-10T21:12:28.735Z,5.20
2022-11-10T21:14:55.434Z,5.20
2022-11-10T21:17:24.574Z,5.10
2022-11-10T21:19:51.578Z,5.10
2022-11-10T21:22:18.216Z,5.00
2022-11-10T21:24:44.869Z,5.00
2022-11-10T21:27:12.277Z,5.00
2022-11-10T21:29:39.029Z,5.00
2022-11-10T21:32:05.999Z,5.00
2022-11-10T21:34:33.180Z,5.00
2022-11-10T21:36:59.792Z,5.00
2022-11-10T21:39:26.508Z,5.00
2022-11-10T21:41:53.498Z,5.00
2022-11-10T21:44:20.409Z,5.00
2022-11-10T21:46:47.373Z,5.00
2022-11-10T21:49:14.088Z,5.00
2022-11-10T21:51:40.769Z,4.90
2022-11-10T21:54:09.018Z,4.90
2022-11-10T21:56:35.713Z,4.90
2022-11-10T21:59:02.429Z,4.90
2022-11-10T22:01:29.228Z,4.90
2022-11-10T22:03:55.904Z,4.90
2022-11-10T22:06:22.616Z,4.90
2022-11-10T22:08:49.235Z,4.90
2022-11-10T22:11:35.622Z,4.90
2022-11-10T22:14:34.611Z,4.80
2022-11-10T22:17:19.839Z,4.80
2022-11-10T22:19:46.587Z,4.70
2022-11-10T22:22:14.430Z,4.70
2022-11-10T22:24:41.330Z,4.70
2022-11-10T22:27:08.257Z,4.70
2022-11-10T22:29:35.003Z,4.70
2022-11-10T22:32:02.152Z,4.70
2022-11-10T22:34:28.830Z,4.70
2022-11-10T22:36:55.490Z,4.70
2022-11-10T22:39:22.142Z,4.60
2022-11-10T22:42:07.403Z,4.50
2022-11-10T22:44:34.042Z,4.50
2022-11-10T22:47:00.720Z,4.50
2022-11-10T22:49:27.335Z,4.50
2022-11-10T22:51:57.208Z,4.50
2022-11-10T22:54:23.939Z,4.50
2022-11-10T22:56:51.484Z,4.50
2022-11-10T22:59:18.313Z,4.50
2022-11-10T23:01:45.160Z,4.50
2022-11-10T23:04:12.095Z,4.50
2022-11-10T23:06:38.985Z,4.50
2022-11-10T23:09:05.758Z,4.40
2022-11-10T23:11:32.841Z,4.50
2022-11-10T23:13:59.582Z,4.40
2022-11-10T23:16:27.827Z,4.40
2022-11-10T23:18:55.303Z,4.30
2022-11-10T23:21:23.173Z,4.40
2022-11-10T23:23:50.160Z,4.30
2022-11-10T23:26:18.493Z,4.40
2022-11-10T23:28:45.677Z,4.40
2022-11-10T23:31:13.593Z,4.30
2022-11-10T23:33:41.195Z,4.30
2022-11-10T23:36:09.010Z,4.40
2022-11-10T23:38:36.534Z,4.40
2022-11-10T23:41:03.964Z,4.40
2022-11-10T23:43:31.013Z,4.30
2022-11-10T23:46:06.913Z,4.30
2022-11-10T23:48:34.947Z,4.30
2022-11-10T23:51:01.715Z,4.20
2022-11-10T23:53:28.360Z,4.20
2022-11-10T23:55:56.043Z,4.10
2022-11-10T23:58:23.076Z,4.10
